Time,TemperatureF,DewpointF,PressureIn,WindDirection,WindDirectionDegrees,WindSpeedMPH,WindSpeedGustMPH,Humidity,HourlyPrecipIn,Conditions,Clouds,dailyrainin,SoftwareType,DateUTC
2013-04-11 00:02:00,75.0,67.0,29.68,South,171,6.0,21.0,75,0.06,,,0.07,,2013-04-11 05:02:00,
2013-04-11 00:13:00,75.0,67.0,29.68,South,171,6.0,21.0,75,0.06,,,0.07,,2013-04-11 05:13:00,
2013-04-11 00:22:00,73.0,66.0,29.68,South,180,7.0,13.0,79,0.07,,,0.09,,2013-04-11 05:22:00,
2013-04-11 00:32:00,72.0,67.0,29.68,WSW,244,2.0,16.0,83,0.05,,,0.11,,2013-04-11 05:32:00,
2013-04-11 00:42:00,72.0,67.0,29.68,WSW,244,2.0,16.0,83,0.05,,,0.11,,2013-04-11 05:42:00,
2013-04-11 00:52:00,71.0,67.0,29.67,SE,133,4.0,9.0,86,0.09,,,0.15,,2013-04-11 05:52:00,
2013-04-11 01:02:00,70.0,67.0,29.68,SW,221,5.0,11.0,89,0.11,,,0.18,,2013-04-11 06:02:00,
2013-04-11 01:12:00,70.0,67.0,29.68,SW,221,5.0,11.0,89,0.11,,,0.18,,2013-04-11 06:12:00,
2013-04-11 01:22:00,69.0,66.0,29.68,West,281,5.0,17.0,90,0.21,,,0.30,,2013-04-11 06:22:00,
2013-04-11 01:32:00,68.0,66.0,29.71,SSW,203,5.0,12.0,92,0.35,,,0.45,,2013-04-11 06:32:00,
2013-04-11 01:42:00,68.0,66.0,29.71,SSW,203,5.0,12.0,92,0.35,,,0.45,,2013-04-11 06:42:00,
2013-04-11 01:52:00,68.0,66.0,29.72,SSE,155,5.0,13.0,93,0.50,,,0.65,,2013-04-11 06:52:00,
2013-04-11 02:02:00,68.0,66.0,29.67,West,273,0.0,8.0,94,0.54,,,0.72,,2013-04-11 07:02:00,
2013-04-11 02:12:00,68.0,66.0,29.67,West,273,0.0,8.0,94,0.54,,,0.72,,2013-04-11 07:12:00,
2013-04-11 02:22:00,67.0,65.0,29.72,SSW,199,4.0,9.0,94,0.43,,,0.73,,2013-04-11 07:22:00,
2013-04-11 02:32:00,67.0,65.0,29.71,SW,226,0.0,5.0,94,0.40,,,0.84,,2013-04-11 07:32:00,
2013-04-11 02:42:00,67.0,65.0,29.71,SW,226,0.0,5.0,94,0.40,,,0.84,,2013-04-11 07:42:00,
2013-04-11 02:52:00,67.0,65.0,29.69,West,281,2.0,6.0,94,0.26,,,0.91,,2013-04-11 07:52:00,
2013-04-11 03:02:00,67.0,66.0,29.68,WNW,286,0.0,4.0,95,0.22,,,0.94,,2013-04-11 08:02:00,
2013-04-11 03:12:00,67.0,66.0,29.68,WNW,286,0.0,4.0,95,0.22,,,0.94,,2013-04-11 08:12:00,
2013-04-11 03:22:00,66.0,64.0,29.68,SSW,202,4.0,11.0,94,0.27,,,1.00,,2013-04-11 08:22:00,
2013-04-11 03:32:00,65.0,63.0,29.70,WNW,294,1.0,4.0,94,0.22,,,1.06,,2013-04-11 08:32:00,
2013-04-11 03:42:00,65.0,63.0,29.70,WNW,294,1.0,4.0,94,0.22,,,1.06,,2013-04-11 08:42:00,
2013-04-11 03:52:00,64.0,62.0,29.71,WNW,298,1.0,6.0,94,0.20,,,1.11,,2013-04-11 08:52:00,
2013-04-11 04:02:00,62.0,60.0,29.70,NW,315,5.0,13.0,94,0.20,,,1.14,,2013-04-11 09:02:00,
2013-04-11 04:12:00,62.0,60.0,29.70,NW,315,5.0,13.0,94,0.20,,,1.14,,2013-04-11 09:12:00,
2013-04-11 04:22:00,61.0,59.0,29.69,WNW,294,5.0,8.0,93,0.16,,,1.16,,2013-04-11 09:22:00,
2013-04-11 04:33:00,60.0,58.0,29.70,WNW,293,4.0,8.0,93,0.12,,,1.18,,2013-04-11 09:33:00,
2013-04-11 04:43:00,60.0,58.0,29.70,WNW,293,4.0,8.0,93,0.12,,,1.18,,2013-04-11 09:43:00,
2013-04-11 04:53:00,59.0,57.0,29.70,NW,321,4.0,9.0,93,0.11,,,1.22,,2013-04-11 09:53:00,
2013-04-11 05:02:00,58.0,56.0,29.68,North,355,0.0,5.0,94,0.13,,,1.27,,2013-04-11 10:02:00,
2013-04-11 05:12:00,57.0,55.0,29.69,NW,309,4.0,6.0,94,0.12,,,1.28,,2013-04-11 10:12:00,
2013-04-11 05:23:00,57.0,55.0,29.69,NW,309,4.0,6.0,94,0.12,,,1.28,,2013-04-11 10:23:00,
2013-04-11 05:32:00,57.0,55.0,29.68,NNW,333,0.0,6.0,94,0.14,,,1.32,,2013-04-11 10:32:00,
2013-04-11 05:42:00,57.0,55.0,29.68,NNW,333,0.0,6.0,94,0.14,,,1.32,,2013-04-11 10:42:00,
2013-04-11 05:52:00,56.0,54.0,29.69,SSW,201,0.0,4.0,94,0.14,,,1.36,,2013-04-11 10:52:00,
2013-04-11 06:02:00,56.0,54.0,29.69,SSW,201,0.0,4.0,94,0.14,,,1.36,,2013-04-11 11:02:00,
2013-04-11 06:12:00,56.0,55.0,29.68,SSW,204,0.0,4.0,95,0.11,,,1.38,,2013-04-11 11:12:00,
2013-04-11 06:23:00,57.0,56.0,29.68,SE,135,0.0,4.0,95,0.12,,,1.40,,2013-04-11 11:23:00,
2013-04-11 06:32:00,57.0,56.0,29.68,SE,135,0.0,0.0,95,0.08,,,1.40,,2013-04-11 11:32:00,
2013-04-11 06:42:00,57.0,56.0,29.68,SE,135,0.0,0.0,95,0.08,,,1.40,,2013-04-11 11:42:00,
2013-04-11 06:52:00,57.0,56.0,29.69,SE,135,0.0,0.0,95,0.05,,,1.41,,2013-04-11 11:52:00,
2013-04-11 07:02:00,57.0,56.0,29.68,SSE,154,0.0,2.0,95,0.04,,,1.42,,2013-04-11 12:02:00,
2013-04-11 07:12:00,57.0,56.0,29.68,SSE,154,0.0,2.0,95,0.04,,,1.42,,2013-04-11 12:12:00,
2013-04-11 07:22:00,57.0,56.0,29.71,WNW,284,5.0,13.0,95,0.04,,,1.44,,2013-04-11 12:22:00,
2013-04-11 07:32:00,55.0,54.0,29.71,WNW,297,4.0,11.0,95,0.07,,,1.47,,2013-04-11 12:32:00,
2013-04-11 07:42:00,55.0,54.0,29.71,WNW,297,4.0,11.0,95,0.07,,,1.47,,2013-04-11 12:42:00,
2013-04-11 07:52:00,52.0,50.0,29.71,WNW,286,4.0,12.0,94,0.11,,,1.52,,2013-04-11 12:52:00,
2013-04-11 08:02:00,52.0,50.0,29.72,NNW,339,5.0,8.0,94,0.16,,,1.58,,2013-04-11 13:02:00,
2013-04-11 08:12:00,51.0,49.0,29.74,WNW,292,5.0,8.0,94,0.18,,,1.62,,2013-04-11 13:12:00,
2013-04-11 08:23:00,51.0,49.0,29.74,WNW,292,5.0,8.0,94,0.18,,,1.62,,2013-04-11 13:23:00,
2013-04-11 08:32:00,51.0,49.0,29.74,NW,317,1.0,9.0,94,0.17,,,1.64,,2013-04-11 13:32:00,
2013-04-11 08:43:00,51.0,49.0,29.74,NW,317,1.0,9.0,94,0.17,,,1.64,,2013-04-11 13:43:00,
2013-04-11 08:54:00,50.0,48.0,29.72,NNW,333,2.0,11.0,94,0.17,,,1.69,,2013-04-11 13:54:00,
2013-04-11 09:02:00,50.0,48.0,29.74,NW,304,0.0,4.0,94,0.13,,,1.71,,2013-04-11 14:02:00,
2013-04-11 09:12:00,50.0,49.0,29.72,WNW,300,1.0,6.0,95,0.10,,,1.72,,2013-04-11 14:12:00,
2013-04-11 09:22:00,50.0,49.0,29.72,WNW,300,1.0,6.0,95,0.10,,,1.72,,2013-04-11 14:22:00,
2013-04-11 09:32:00,50.0,49.0,29.73,NW,313,2.0,8.0,95,0.09,,,1.73,,2013-04-11 14:32:00,
2013-04-11 09:42:00,50.0,49.0,29.73,NW,313,2.0,8.0,95,0.09,,,1.73,,2013-04-11 14:42:00,
2013-04-11 09:53:00,50.0,48.0,29.72,North,355,2.0,6.0,94,0.06,,,1.75,,2013-04-11 14:53:00,
2013-04-11 10:02:00,49.0,47.0,29.73,North,9,6.0,11.0,94,0.05,,,1.76,,2013-04-11 15:02:00,
2013-04-11 10:12:00,49.0,47.0,29.77,SW,230,0.0,8.0,94,0.04,,,1.76,,2013-04-11 15:12:00,
2013-04-11 10:22:00,49.0,47.0,29.77,SW,230,0.0,8.0,94,0.04,,,1.76,,2013-04-11 15:22:00,
2013-04-11 10:32:00,49.0,47.0,29.76,NW,316,2.0,5.0,94,0.05,,,1.78,,2013-04-11 15:32:00,
2013-04-11 10:43:00,49.0,47.0,29.76,NW,316,2.0,5.0,94,0.05,,,1.78,,2013-04-11 15:43:00,
2013-04-11 10:53:00,49.0,47.0,29.75,NW,310,1.0,7.0,94,0.05,,,1.80,,2013-04-11 15:53:00,
2013-04-11 11:02:00,49.0,47.0,29.76,NW,313,4.0,9.0,94,0.05,,,1.81,,2013-04-11 16:02:00,
2013-04-11 11:12:00,49.0,47.0,29.76,NW,313,4.0,9.0,94,0.05,,,1.81,,2013-04-11 16:12:00,
2013-04-11 11:23:00,49.0,47.0,29.76,NW,311,2.0,9.0,94,0.05,,,1.81,,2013-04-11 16:23:00,
2013-04-11 11:32:00,49.0,48.0,29.78,WNW,290,0.0,7.0,95,0.07,,,1.85,,2013-04-11 16:32:00,
2013-04-11 11:42:00,49.0,47.0,29.79,NW,313,4.0,8.0,94,0.09,,,1.89,,2013-04-11 16:42:00,
2013-04-11 11:53:00,49.0,47.0,29.79,NW,313,4.0,8.0,94,0.09,,,1.89,,2013-04-11 16:53:00,
2013-04-11 12:02:00,49.0,47.0,29.74,NW,314,1.0,8.0,94,0.11,,,1.92,,2013-04-11 17:02:00,
2013-04-11 12:23:00,48.0,46.0,29.73,North,360,4.0,9.0,94,0.11,,,1.92,,2013-04-11 17:23:00,
2013-04-11 12:32:00,48.0,46.0,29.74,NNW,331,5.0,10.0,94,0.08,,,1.93,,2013-04-11 17:32:00,
2013-04-11 12:42:00,48.0,46.0,29.74,NNW,331,5.0,10.0,94,0.08,,,1.93,,2013-04-11 17:42:00,
2013-04-11 12:53:00,48.0,46.0,29.74,West,274,0.0,7.0,94,0.06,,,1.95,,2013-04-11 17:53:00,
2013-04-11 13:02:00,48.0,46.0,29.75,WNW,288,1.0,7.0,94,0.05,,,1.97,,2013-04-11 18:02:00,
2013-04-11 13:13:00,48.0,46.0,29.75,WNW,288,1.0,7.0,94,0.05,,,1.97,,2013-04-11 18:13:00,
2013-04-11 13:23:00,48.0,46.0,29.72,NW,318,0.0,5.0,94,0.07,,,1.99,,2013-04-11 18:23:00,
2013-04-11 13:32:00,48.0,47.0,29.72,West,268,0.0,0.0,95,0.08,,,2.01,,2013-04-11 18:32:00,
2013-04-11 13:42:00,48.0,47.0,29.72,West,268,0.0,0.0,95,0.08,,,2.01,,2013-04-11 18:42:00,
2013-04-11 13:53:00,49.0,47.0,29.69,West,268,0.0,0.0,94,0.08,,,2.03,,2013-04-11 18:53:00,
2013-04-11 14:03:00,49.0,48.0,29.68,North,9,0.0,0.0,95,0.07,,,2.04,,2013-04-11 19:03:00,
2013-04-11 14:13:00,49.0,48.0,29.68,North,9,0.0,0.0,95,0.07,,,2.04,,2013-04-11 19:13:00,
2013-04-11 14:22:00,49.0,48.0,29.67,North,9,0.0,0.0,95,0.07,,,2.06,,2013-04-11 19:22:00,
2013-04-11 14:32:00,49.0,48.0,29.70,West,275,5.0,8.0,95,0.05,,,2.06,,2013-04-11 19:32:00,
2013-04-11 14:42:00,49.0,48.0,29.70,West,275,5.0,8.0,95,0.05,,,2.06,,2013-04-11 19:42:00,
2013-04-11 14:53:00,49.0,48.0,29.71,NW,323,2.0,7.0,95,0.03,,,2.06,,2013-04-11 19:53:00,
2013-04-11 15:02:00,48.0,46.0,29.70,NNW,327,4.0,7.0,94,0.03,,,2.07,,2013-04-11 20:02:00,
2013-04-11 15:13:00,48.0,46.0,29.70,NNW,327,4.0,7.0,94,0.03,,,2.07,,2013-04-11 20:13:00,
2013-04-11 15:22:00,48.0,46.0,29.70,WNW,290,2.0,11.0,94,0.01,,,2.07,,2013-04-11 20:22:00,
2013-04-11 15:33:00,48.0,46.0,29.70,WNW,302,5.0,11.0,94,0.01,,,2.07,,2013-04-11 20:33:00,
2013-04-11 15:42:00,48.0,46.0,29.70,WNW,302,5.0,11.0,94,0.01,,,2.07,,2013-04-11 20:42:00,
2013-04-11 15:52:00,47.0,45.0,29.67,NNE,20,4.0,9.0,94,0.01,,,2.07,,2013-04-11 20:52:00,
2013-04-11 16:02:00,48.0,47.0,29.65,North,10,1.0,5.0,95,0.00,,,2.07,,2013-04-11 21:02:00,
2013-04-11 16:22:00,48.0,47.0,29.64,NW,323,2.0,6.0,95,0.00,,,2.07,,2013-04-11 21:22:00,
2013-04-11 16:33:00,47.0,45.0,29.66,NW,317,5.0,9.0,94,0.00,,,2.07,,2013-04-11 21:33:00,
2013-04-11 16:42:00,47.0,45.0,29.66,NW,317,5.0,9.0,94,0.00,,,2.07,,2013-04-11 21:42:00,
2013-04-11 16:54:00,48.0,47.0,29.69,NNW,331,4.0,7.0,95,0.00,,,2.07,,2013-04-11 21:54:00,
2013-04-11 17:03:00,48.0,46.0,29.68,NW,322,3.0,9.0,94,0.00,,,2.07,,2013-04-11 22:03:00,
2013-04-11 17:13:00,48.0,46.0,29.68,NW,322,3.0,9.0,94,0.00,,,2.07,,2013-04-11 22:13:00,
2013-04-11 17:23:00,48.0,46.0,29.71,WNW,294,3.0,6.0,94,0.00,,,2.07,,2013-04-11 22:23:00,
2013-04-11 17:33:00,48.0,46.0,29.70,North,355,1.0,9.0,94,0.00,,,2.07,,2013-04-11 22:33:00,
2013-04-11 17:44:00,48.0,46.0,29.70,North,355,1.0,9.0,94,0.00,,,2.07,,2013-04-11 22:44:00,
2013-04-11 17:53:00,48.0,46.0,29.71,North,360,0.0,8.0,93,0.00,,,2.07,,2013-04-11 22:53:00,
2013-04-11 18:03:00,48.0,46.0,29.71,WNW,303,6.0,8.0,92,0.00,,,2.07,,2013-04-11 23:03:00,
2013-04-11 18:12:00,48.0,46.0,29.71,WNW,303,6.0,8.0,92,0.00,,,2.07,,2013-04-11 23:12:00,
2013-04-11 18:23:00,48.0,45.0,29.71,NW,316,1.0,7.0,91,0.00,,,2.07,,2013-04-11 23:23:00,
2013-04-11 18:32:00,49.0,46.0,29.71,West,267,1.0,5.0,91,0.00,,,2.07,,2013-04-11 23:32:00,
2013-04-11 18:42:00,49.0,46.0,29.71,West,267,1.0,5.0,91,0.00,,,2.07,,2013-04-11 23:42:00,
2013-04-11 18:53:00,49.0,46.0,29.72,NW,313,0.0,9.0,90,0.00,,,2.07,,2013-04-11 23:53:00,
2013-04-11 19:02:00,49.0,46.0,29.72,WNW,303,0.0,1.0,89,0.00,,,2.07,,2013-04-12 00:02:00,
2013-04-11 19:12:00,49.0,46.0,29.72,WNW,303,0.0,1.0,89,0.00,,,2.07,,2013-04-12 00:12:00,
2013-04-11 19:22:00,49.0,46.0,29.72,WSW,244,0.0,8.0,88,0.00,,,2.07,,2013-04-12 00:22:00,
2013-04-11 19:32:00,49.0,45.0,29.71,WNW,289,0.0,4.0,86,0.00,,,2.07,,2013-04-12 00:32:00,
2013-04-11 19:42:00,49.0,45.0,29.71,WNW,289,0.0,4.0,86,0.00,,,2.07,,2013-04-12 00:42:00,
2013-04-11 19:53:00,48.0,44.0,29.71,WNW,290,0.0,0.0,86,0.00,,,2.07,,2013-04-12 00:53:00,
2013-04-11 20:02:00,48.0,44.0,29.72,WNW,288,0.0,0.0,87,0.00,,,2.07,,2013-04-12 01:02:00,
2013-04-11 20:12:00,48.0,44.0,29.72,WNW,288,0.0,0.0,87,0.00,,,2.07,,2013-04-12 01:12:00,
2013-04-11 20:22:00,47.0,44.0,29.72,WNW,288,0.0,0.0,89,0.00,,,2.07,,2013-04-12 01:22:00,
2013-04-11 20:32:00,46.0,43.0,29.73,WNW,288,0.0,0.0,90,0.00,,,2.07,,2013-04-12 01:32:00,
2013-04-11 20:42:00,46.0,43.0,29.73,WNW,288,0.0,0.0,90,0.00,,,2.07,,2013-04-12 01:42:00,
2013-04-11 20:52:00,46.0,43.0,29.73,WNW,288,0.0,0.0,90,0.00,,,2.07,,2013-04-12 01:52:00,
2013-04-11 21:03:00,46.0,44.0,29.73,WNW,288,0.0,0.0,91,0.00,,,2.07,,2013-04-12 02:03:00,
2013-04-11 21:12:00,46.0,44.0,29.73,WNW,288,0.0,0.0,91,0.00,,,2.07,,2013-04-12 02:12:00,
2013-04-11 21:22:00,45.0,43.0,29.74,WNW,288,0.0,0.0,91,0.00,,,2.07,,2013-04-12 02:22:00,
2013-04-11 21:32:00,45.0,43.0,29.75,WNW,288,0.0,0.0,92,0.00,,,2.07,,2013-04-12 02:32:00,
2013-04-11 21:42:00,45.0,43.0,29.75,WNW,288,0.0,0.0,92,0.00,,,2.07,,2013-04-12 02:42:00,
2013-04-11 21:52:00,45.0,43.0,29.75,West,279,0.0,0.0,92,0.00,,,2.07,,2013-04-12 02:52:00,
2013-04-11 22:02:00,45.0,43.0,29.76,WSW,252,0.0,4.0,93,0.00,,,2.07,,2013-04-12 03:02:00,
2013-04-11 22:12:00,45.0,43.0,29.76,WSW,252,0.0,4.0,93,0.00,,,2.07,,2013-04-12 03:12:00,
2013-04-11 22:22:00,45.0,43.0,29.76,SW,228,0.0,4.0,93,0.00,,,2.07,,2013-04-12 03:22:00,
2013-04-11 22:33:00,45.0,43.0,29.78,SW,232,0.0,0.0,93,0.00,,,2.07,,2013-04-12 03:33:00,
2013-04-11 22:43:00,45.0,43.0,29.78,SW,232,0.0,0.0,93,0.00,,,2.07,,2013-04-12 03:43:00,
2013-04-11 22:53:00,45.0,43.0,29.78,West,276,0.0,3.0,94,0.00,,,2.07,,2013-04-12 03:53:00,
2013-04-11 23:03:00,45.0,43.0,29.78,West,276,0.0,0.0,94,0.00,,,2.07,,2013-04-12 04:03:00,
2013-04-11 23:13:00,45.0,43.0,29.78,West,276,0.0,0.0,94,0.00,,,2.07,,2013-04-12 04:13:00,
2013-04-11 23:22:00,45.0,43.0,29.78,West,276,0.0,0.0,93,0.00,,,2.05,,2013-04-12 04:22:00,
2013-04-11 23:33:00,45.0,43.0,29.78,WSW,246,0.0,0.0,94,0.00,,,2.05,,2013-04-12 04:33:00,
2013-04-11 23:43:00,45.0,43.0,29.78,WSW,246,0.0,0.0,94,0.00,,,2.05,,2013-04-12 04:43:00,
2013-04-11 23:53:00,45.0,43.0,29.79,WSW,242,0.0,4.0,94,0.00,,,2.05,,2013-04-12 04:53:00,